Accueil
METAR-TAF:

METAR-TAF

Aéroports :

Leconfield, Angleterre

latitude: 53-52-37N, longitude: 0-26-15W, altitude: 7 m

Observation

Le bulletin a été fait il y a 25 minutes, à 06:50 UTC
Vent 2 kt de nord-est
Température 2°C
Humidité 93%
Pression 1023 hPa
Visibilité 10 km ou plus

METAR: EGXV 140650Z AUTO 05002KT 9999 SCT040/// BKN050/// 02/01 Q1023

Heure: 07:15 (07:15 UTC)


TAF: absent

Observations et prévisions météorologiques de plus de 4000 aéroports (messages METAR et TAF).

Les stations disponibles sont représentées par des disques jaunes et rouges sur la carte.

Passer la souris dessus pour voir le nom de la station.

Cliquer dessus pour voir les observations et prévisions météorologiques.

Pour changer de carte: cliquez sur les boutons verts avec une croix noire pour zoomer, sur le bouton vert avec un tiret pour effectuer un zoom arrière, ou sur les flèches vertes pour les cartes adjacentes.


METAR-TAF: